Two Rivers, Alaska
Current Conditions -  °F | °C
As of 9:58 AM on Friday 24 Oct 2014 (Local Time) from PAEI Reporting Station
Broken Clouds Broken Clouds  
Wind Chill: 15°   Ceiling: 15000
Heat Index: 15°   Visibility: 10mi
Dew Point: 12°   Wind: 0mph
Humidity: 89%   Direction: NA
Pressure: 29.82"   Gusts: NA
Location:  64.87°N, 147.09°W
Report Text: PAEI 241758Z 00000KT 10SM FEW040 SCT090 BKN150 M10/M11 A2982 RMK AO2A SLP111 60000 T10961111 11068 21102 52006 $
Loading
Personal Weather Stations






























Interactive Weather Map
Tropical Storm Tracking
New forecast layout! Learn more

10-Day Weather Forecast

Advertisements
Track Severe Weather on mobile